Startpagina
METAR-TAF:

METAR-TAF

Vliegvelden :

Rotterdam The Hague Airport

Rotterdam, Nederland

breedte: 51-57N, lengte: 004-27E, hoogte: -5 m

Actueel weer

Dit bericht is 29 minuten geleden gemaakt, om 22:55 UTC
Wind 3 kt uit het noorden
Temperatuur 3°C
Vochtigheid 87%
Druk 1034 hPa
Zicht 10 km of meer
Geheel bewolkt op 1800 ft

METAR: EHRD 242255Z AUTO 01003KT 9999 OVC018 03/01 Q1034 NOSIG

Tijdstip: 00:24 (23:24 UTC)

Verwachting

Dit bericht is 6 uur en het 11 minuten geleden gemaakt, om 17:13 UTC
Verwachting geldig van 24 om 18 UTC tot 25 om 24 UTC
Wind 5 kt uit het oostnoordoosten
Zicht 10 km of meer
Geheel bewolkt op 2000 ft

TAF: EHRD 241713Z 2418/2524 06005KT 9999 OVC020

Waarnemingen en weersverwachtingen van meer dan 4000 vliegvelden (METAR en TAF).

De beschikbare stations zijn de gele en rode punten op de kaart.

Ga met uw muis naar het station om de naam te zien.

Klik dan om waarnemingen en weersverwachtingen te zien.

kaart wijzigen: klik op de groene knoppen met een zwart kruis om in te zoomen, op de groene knop met een streepje om uit te zoomen of op de groene pijlen voor aangrenzende kaarten.


METAR-TAF: